createdAt,value
2023-05-12T00:00:03.909Z,9.3
2023-05-12T00:02:03.422Z,9.3
2023-05-12T00:04:03.544Z,9.3
2023-05-12T00:06:03.456Z,9.3
2023-05-12T00:08:05.386Z,9.3
2023-05-12T00:10:05.068Z,9.3
2023-05-12T00:12:03.401Z,9.4
2023-05-12T00:14:03.413Z,9.4
2023-05-12T00:16:03.446Z,9.4
2023-05-12T00:18:04.731Z,9.4
2023-05-12T00:20:03.862Z,9.3
2023-05-12T00:22:03.787Z,9.3
2023-05-12T00:24:03.394Z,9.3
2023-05-12T00:26:03.400Z,9.2
2023-05-12T00:30:03.444Z,9.3
2023-05-12T00:32:03.507Z,9.3
2023-05-12T00:34:03.391Z,9.3
2023-05-12T00:36:05.759Z,9.3
2023-05-12T00:38:03.786Z,9.3
2023-05-12T00:40:03.898Z,9.3
2023-05-12T00:42:03.390Z,9.3
2023-05-12T00:44:03.392Z,9.4
2023-05-12T00:46:03.426Z,9.4
2023-05-12T00:48:03.441Z,9.3
2023-05-12T00:50:03.434Z,9.3
2023-05-12T00:52:03.878Z,9.3
2023-05-12T00:54:04.910Z,9.4
2023-05-12T00:56:03.418Z,9.4
2023-05-12T00:58:03.457Z,9.4
2023-05-12T01:00:03.433Z,9.4
2023-05-12T01:02:03.481Z,9.3
2023-05-12T01:04:03.424Z,9.3
2023-05-12T01:08:03.423Z,9.3
2023-05-12T01:10:08.284Z,9.2
2023-05-12T01:12:03.432Z,9.3
2023-05-12T01:14:03.387Z,9.3
2023-05-12T01:16:03.508Z,9.3
2023-05-12T01:18:05.657Z,9.2
2023-05-12T01:20:03.635Z,9.1
2023-05-12T01:22:03.429Z,9.2
2023-05-12T01:24:03.450Z,9.1
2023-05-12T01:26:03.431Z,9.1
2023-05-12T01:28:03.877Z,9.1
2023-05-12T01:30:03.450Z,9.1
2023-05-12T01:32:03.430Z,9.1
2023-05-12T01:34:03.430Z,9
2023-05-12T01:36:03.433Z,9
2023-05-12T01:38:03.444Z,8.9
2023-05-12T01:40:03.394Z,9.1
2023-05-12T01:42:03.445Z,9
2023-05-12T01:44:03.428Z,9
2023-05-12T01:48:03.859Z,9
2023-05-12T01:50:10.835Z,9
2023-05-12T01:52:05.029Z,9
2023-05-12T01:54:03.431Z,9
2023-05-12T01:56:03.893Z,9.2
2023-05-12T01:58:05.036Z,9.2
2023-05-12T02:00:05.067Z,9.2
2023-05-12T02:02:03.530Z,9.2
2023-05-12T02:04:04.049Z,9.2
2023-05-12T02:06:03.404Z,9.2
2023-05-12T02:10:03.464Z,9.3
2023-05-12T02:12:03.393Z,9.2
2023-05-12T02:14:03.468Z,9.2
2023-05-12T02:16:03.490Z,9.2
2023-05-12T02:18:03.478Z,9.2
2023-05-12T02:20:03.391Z,9.3
2023-05-12T02:22:03.428Z,9.2
2023-05-12T02:24:03.425Z,9.2
2023-05-12T02:26:03.435Z,9.2
2023-05-12T02:28:03.429Z,9.2
2023-05-12T02:30:03.410Z,9.2
2023-05-12T02:32:03.572Z,9.2
2023-05-12T02:36:03.397Z,9.2
2023-05-12T02:38:03.423Z,9.2
2023-05-12T02:40:03.475Z,9.2
2023-05-12T02:42:07.413Z,9.1
2023-05-12T02:44:03.433Z,9.1
2023-05-12T02:46:03.429Z,9.1
2023-05-12T02:48:05.067Z,9.1
2023-05-12T02:50:03.440Z,9.2
2023-05-12T02:52:03.972Z,9.2
2023-05-12T02:54:03.455Z,9.1
2023-05-12T02:56:03.813Z,9.1
2023-05-12T02:58:05.994Z,9.2
2023-05-12T03:00:03.856Z,9.2
2023-05-12T03:02:03.864Z,9.1
2023-05-12T03:04:03.419Z,9.1
2023-05-12T03:06:03.439Z,9.1
2023-05-12T03:08:04.093Z,9.1
2023-05-12T03:10:03.444Z,9.1
2023-05-12T03:12:03.890Z,9.2
2023-05-12T03:14:03.399Z,9.1
2023-05-12T03:16:03.411Z,9.2
2023-05-12T03:18:03.429Z,9.2
2023-05-12T03:22:03.425Z,9.1
2023-05-12T03:24:03.435Z,9.2
2023-05-12T03:26:03.436Z,9.1
2023-05-12T03:28:03.730Z,9.1
2023-05-12T03:30:03.418Z,8.9
2023-05-12T03:32:03.415Z,9
2023-05-12T03:34:04.180Z,9.1
2023-05-12T03:36:03.419Z,9.2
2023-05-12T03:40:03.428Z,9.1
2023-05-12T03:44:03.441Z,9.1
2023-05-12T03:46:04.717Z,9.1
2023-05-12T03:48:04.849Z,9.1
2023-05-12T03:50:03.418Z,9.1
2023-05-12T03:52:03.420Z,9.1
2023-05-12T03:56:03.441Z,9.3
2023-05-12T03:58:03.914Z,9.3
2023-05-12T04:00:09.452Z,9.3
2023-05-12T04:02:03.919Z,9.2
2023-05-12T04:04:04.121Z,9.2
2023-05-12T04:06:03.438Z,9.2
2023-05-12T04:08:03.422Z,9.2
2023-05-12T04:10:03.497Z,9.1
2023-05-12T04:12:03.420Z,9.2
2023-05-12T04:14:03.424Z,9.2
2023-05-12T04:16:03.933Z,9.2
2023-05-12T04:18:03.487Z,9.3
2023-05-12T04:20:03.893Z,9.3
2023-05-12T04:22:03.909Z,9.2
2023-05-12T04:24:03.397Z,9.4
2023-05-12T04:26:03.431Z,9.3
2023-05-12T04:28:03.409Z,9.2
2023-05-12T04:32:03.500Z,9.5
2023-05-12T04:34:03.448Z,9.5
2023-05-12T04:36:03.919Z,9.6
2023-05-12T04:38:03.528Z,9.5
2023-05-12T04:40:03.482Z,9.5
2023-05-12T04:42:03.434Z,9.5
2023-05-12T04:44:03.417Z,9.5
2023-05-12T04:46:03.901Z,9.6
2023-05-12T04:48:03.454Z,9.6
2023-05-12T04:50:03.420Z,9.6
2023-05-12T04:52:03.450Z,9.7
2023-05-12T04:54:03.407Z,9.7
2023-05-12T04:56:03.901Z,9.7
2023-05-12T04:58:03.451Z,9.8
2023-05-12T05:00:03.478Z,9.7
2023-05-12T05:02:03.454Z,9.8
2023-05-12T05:04:03.413Z,9.8
2023-05-12T05:06:03.829Z,9.8
2023-05-12T05:08:03.460Z,9.8
2023-05-12T05:10:03.440Z,9.8
2023-05-12T05:12:03.426Z,9.9
2023-05-12T05:14:04.210Z,10
2023-05-12T05:16:03.489Z,10
2023-05-12T05:18:03.481Z,10
2023-05-12T05:20:09.225Z,9.9
2023-05-12T05:22:03.810Z,9.9
2023-05-12T05:24:03.455Z,10
2023-05-12T05:26:03.494Z,10.1
2023-05-12T05:28:04.162Z,10.1
2023-05-12T05:30:03.558Z,10
2023-05-12T05:32:03.569Z,10.1
2023-05-12T05:34:03.438Z,10
2023-05-12T05:36:03.419Z,10
2023-05-12T05:38:03.904Z,10
2023-05-12T05:40:03.571Z,9.9
2023-05-12T05:42:03.892Z,9.9
2023-05-12T05:44:03.450Z,10
2023-05-12T05:46:03.450Z,9.9
2023-05-12T05:48:03.462Z,9.9
2023-05-12T05:50:03.448Z,9.9
2023-05-12T05:52:03.448Z,9.8
2023-05-12T05:54:03.453Z,9.8
2023-05-12T05:56:03.496Z,9.7
2023-05-12T05:58:03.415Z,9.5
2023-05-12T06:00:03.457Z,9.8
2023-05-12T06:04:03.630Z,9.6
2023-05-12T06:06:03.432Z,9.8
2023-05-12T06:08:03.467Z,9.8
2023-05-12T06:10:03.508Z,9.9
2023-05-12T06:12:03.456Z,9.9
2023-05-12T06:14:03.915Z,10.2
2023-05-12T06:16:03.445Z,10.3
2023-05-12T06:18:03.486Z,10.5
2023-05-12T06:20:04.134Z,10.6
2023-05-12T06:22:03.446Z,10.9
2023-05-12T06:24:03.458Z,10.9
2023-05-12T06:26:03.825Z,11.3
2023-05-12T06:28:04.167Z,11.3
2023-05-12T06:32:04.216Z,11.6
2023-05-12T06:34:03.464Z,11.6
2023-05-12T06:36:03.467Z,11.6
2023-05-12T06:38:03.445Z,12.2
2023-05-12T06:40:03.462Z,12.2
2023-05-12T06:42:03.414Z,12
2023-05-12T06:44:03.877Z,11.9
2023-05-12T06:46:03.452Z,11.7
2023-05-12T06:50:03.453Z,11.6
2023-05-12T06:52:03.454Z,11.3
2023-05-12T06:54:03.532Z,11
2023-05-12T06:56:03.900Z,11.4
2023-05-12T07:00:03.570Z,11.6
2023-05-12T07:04:03.468Z,12
2023-05-12T07:06:03.551Z,12
2023-05-12T07:08:03.506Z,12.1
2023-05-12T07:10:03.829Z,12.4
2023-05-12T07:12:03.465Z,12.4
2023-05-12T07:14:03.452Z,12.4
2023-05-12T07:16:04.103Z,12.4
2023-05-12T07:18:04.625Z,12.5
2023-05-12T07:20:03.545Z,12.5
2023-05-12T07:22:03.553Z,12.7
2023-05-12T07:24:03.467Z,12.7
2023-05-12T07:26:03.484Z,12.4
2023-05-12T07:28:03.553Z,12.4
2023-05-12T07:30:03.487Z,12.2
2023-05-12T07:32:03.497Z,11.9
2023-05-12T07:34:03.477Z,11.9
2023-05-12T07:36:03.471Z,11.8
2023-05-12T07:38:03.463Z,11.7
2023-05-12T07:40:03.499Z,11.7
2023-05-12T07:42:03.484Z,11.7
2023-05-12T07:44:03.448Z,11.8
2023-05-12T07:46:03.449Z,11.4
2023-05-12T07:48:03.519Z,11.4
2023-05-12T07:50:03.500Z,11.5
2023-05-12T07:52:03.455Z,11.5
2023-05-12T07:54:03.494Z,11.4
2023-05-12T07:56:03.483Z,11.7
2023-05-12T08:00:03.476Z,12.3
2023-05-12T08:02:03.555Z,12.6
2023-05-12T08:04:03.945Z,12.6
2023-05-12T08:06:04.214Z,12.6
2023-05-12T08:08:03.474Z,12.7
2023-05-12T08:10:03.534Z,12.6
2023-05-12T08:12:03.453Z,12.4
2023-05-12T08:14:03.466Z,12.3
2023-05-12T08:16:03.459Z,12.3
2023-05-12T08:18:03.527Z,12.2
2023-05-12T08:20:03.481Z,12.2
2023-05-12T08:22:03.929Z,11.7
2023-05-12T08:24:03.462Z,11.8
2023-05-12T08:28:05.832Z,11.8
2023-05-12T08:30:03.464Z,11.7
2023-05-12T08:32:03.467Z,11.6
2023-05-12T08:34:10.093Z,11.6
2023-05-12T08:36:03.473Z,11.5
2023-05-12T08:38:03.815Z,11.7
2023-05-12T08:40:03.554Z,11.5
2023-05-12T08:44:03.498Z,11.5
2023-05-12T08:46:04.174Z,11.4
2023-05-12T08:48:03.622Z,11.4
2023-05-12T08:50:03.585Z,11.3
2023-05-12T08:52:05.669Z,11.3
2023-05-12T08:54:03.579Z,11.7
2023-05-12T08:58:03.471Z,12.4
2023-05-12T09:02:03.921Z,13.1
2023-05-12T09:04:03.914Z,13
2023-05-12T09:08:03.455Z,12.8
2023-05-12T09:10:03.525Z,12.5
2023-05-12T09:12:03.469Z,12.7
2023-05-12T09:14:03.482Z,13
2023-05-12T09:16:03.552Z,12.8
2023-05-12T09:18:03.528Z,12.5
2023-05-12T09:20:03.465Z,12.9
2023-05-12T09:22:03.455Z,13.2
2023-05-12T09:24:04.355Z,13.1
2023-05-12T09:26:04.218Z,13.4
2023-05-12T09:28:03.487Z,13.5
2023-05-12T09:30:03.452Z,13
2023-05-12T09:32:04.059Z,13.1
2023-05-12T09:34:03.480Z,12.9
2023-05-12T09:36:03.444Z,12.9
2023-05-12T09:38:03.466Z,12.9
2023-05-12T09:40:03.957Z,13.4
2023-05-12T09:42:03.511Z,13.4
2023-05-12T09:44:03.940Z,13.2
2023-05-12T09:46:04.263Z,12.9
2023-05-12T09:48:04.237Z,12.6
2023-05-12T09:52:03.500Z,12.9
2023-05-12T09:54:04.607Z,12.8
2023-05-12T09:56:03.493Z,12.6
2023-05-12T09:58:03.853Z,12.1
2023-05-12T10:00:13.988Z,12.1
2023-05-12T10:02:03.469Z,12.1
2023-05-12T10:06:05.709Z,12
2023-05-12T10:10:03.473Z,11.9
2023-05-12T10:12:03.845Z,11.7
2023-05-12T10:14:03.492Z,11.9
2023-05-12T10:16:03.906Z,11.7
2023-05-12T10:18:04.226Z,11.8
2023-05-12T10:20:03.464Z,12
2023-05-12T10:22:03.434Z,12
2023-05-12T10:24:03.932Z,12.2
2023-05-12T10:28:04.225Z,12.1
2023-05-12T10:30:04.204Z,12.3
2023-05-12T10:32:04.183Z,12.6
2023-05-12T10:34:09.682Z,12.2
2023-05-12T10:36:03.439Z,12.1
2023-05-12T10:38:03.912Z,12.3
2023-05-12T10:40:03.481Z,12.3
2023-05-12T10:44:03.942Z,12.1
2023-05-12T10:46:03.494Z,12.1
2023-05-12T10:48:03.518Z,12.1
2023-05-12T10:52:03.452Z,12.2
2023-05-12T10:54:03.524Z,12.3
2023-05-12T10:56:03.613Z,12.1
2023-05-12T10:58:03.657Z,12.2
2023-05-12T11:00:04.154Z,12.1
2023-05-12T11:02:04.158Z,12.3
2023-05-12T11:04:03.962Z,12.4
2023-05-12T11:06:04.667Z,12.2
2023-05-12T11:08:04.517Z,12.3
2023-05-12T11:10:05.038Z,12.4
2023-05-12T11:12:04.087Z,12.7
2023-05-12T11:14:03.444Z,12.7
2023-05-12T11:16:03.458Z,12.8
2023-05-12T11:20:03.568Z,12.5
2023-05-12T11:22:03.475Z,12.5
2023-05-12T11:24:03.591Z,12.6
2023-05-12T11:26:03.497Z,13
2023-05-12T11:28:03.478Z,12.9
2023-05-12T11:30:03.482Z,12.9
2023-05-12T11:32:03.510Z,13.1
2023-05-12T11:34:11.741Z,13.2
2023-05-12T11:36:03.472Z,13.2
2023-05-12T11:38:03.493Z,12.9
2023-05-12T11:44:03.944Z,12.9
2023-05-12T11:46:03.502Z,12.9
2023-05-12T11:48:03.546Z,13.2
2023-05-12T11:50:04.196Z,13.5
2023-05-12T11:52:03.464Z,13.2
2023-05-12T11:54:03.466Z,13.5
2023-05-12T11:56:03.476Z,13.3
2023-05-12T12:00:03.510Z,13.4
2023-05-12T12:02:05.193Z,12.9
2023-05-12T12:04:03.517Z,12.8
2023-05-12T12:06:03.480Z,12.8
2023-05-12T12:08:05.421Z,12.4
2023-05-12T12:10:03.477Z,12.2
2023-05-12T12:12:03.838Z,12.3
2023-05-12T12:14:03.498Z,12.3
2023-05-12T12:16:03.893Z,12.3
2023-05-12T12:20:03.462Z,12
2023-05-12T12:22:03.493Z,12
2023-05-12T12:24:03.468Z,11.9
2023-05-12T12:26:03.462Z,11.9
2023-05-12T12:28:03.524Z,11.7
2023-05-12T12:30:03.520Z,11.6
2023-05-12T12:32:03.530Z,11.4
2023-05-12T12:34:03.588Z,11.4
2023-05-12T12:36:03.510Z,11.6
2023-05-12T12:38:11.713Z,11.6
2023-05-12T12:40:03.469Z,11.8
2023-05-12T12:44:03.508Z,11.9
2023-05-12T12:46:03.520Z,12.2
2023-05-12T12:48:03.536Z,11.9
2023-05-12T12:50:03.459Z,12.1
2023-05-12T12:52:03.460Z,12.3
2023-05-12T12:56:03.499Z,12.6
2023-05-12T12:58:04.244Z,12.5
2023-05-12T13:00:03.491Z,12.3
2023-05-12T13:02:10.057Z,12.6
2023-05-12T13:06:04.257Z,12.5
2023-05-12T13:08:03.475Z,12.8
2023-05-12T13:10:03.520Z,12.6
2023-05-12T13:12:03.973Z,12.6
2023-05-12T13:14:03.495Z,12.6
2023-05-12T13:16:03.466Z,12.8
2023-05-12T13:18:03.516Z,12.2
2023-05-12T13:20:03.463Z,12.3
2023-05-12T13:22:03.466Z,12.4
2023-05-12T13:24:03.548Z,12.5
2023-05-12T13:26:03.513Z,12.6
2023-05-12T13:28:03.473Z,12.5
2023-05-12T13:30:03.496Z,12.4
2023-05-12T13:34:03.530Z,12.3
2023-05-12T13:36:03.552Z,12.4
2023-05-12T13:40:03.518Z,12.4
2023-05-12T13:42:03.506Z,12.4
2023-05-12T13:44:03.876Z,12.6
2023-05-12T13:46:03.549Z,12.4
2023-05-12T13:48:03.503Z,12.5
2023-05-12T13:50:03.488Z,12.5
2023-05-12T13:52:03.520Z,12.5
2023-05-12T13:54:03.503Z,12.4
2023-05-12T13:56:03.685Z,12.6
2023-05-12T13:58:03.485Z,12.4
2023-05-12T14:00:04.128Z,12.3
2023-05-12T14:02:03.543Z,12.3
2023-05-12T14:04:03.966Z,12.5
2023-05-12T14:06:07.528Z,12.6
2023-05-12T14:08:03.966Z,12.6
2023-05-12T14:10:04.343Z,12.7
2023-05-12T14:12:03.462Z,12.9
2023-05-12T14:14:03.567Z,13
2023-05-12T14:16:03.485Z,13
2023-05-12T14:18:04.018Z,12.9
2023-05-12T14:20:03.695Z,13
2023-05-12T14:24:03.685Z,13.1
2023-05-12T14:26:03.993Z,13.2
2023-05-12T14:28:03.707Z,13.2
2023-05-12T14:30:04.262Z,13
2023-05-12T14:32:04.243Z,13.4
2023-05-12T14:34:09.684Z,13.2
2023-05-12T14:36:07.701Z,13.3
2023-05-12T14:38:03.970Z,13.4
2023-05-12T14:40:04.206Z,13.1
2023-05-12T14:42:03.672Z,13.2
2023-05-12T14:44:04.460Z,13.1
2023-05-12T14:46:04.098Z,13.1
2023-05-12T14:48:12.175Z,13.6
2023-05-12T14:52:04.331Z,13.2
2023-05-12T14:54:10.066Z,13.1
2023-05-12T14:56:03.675Z,13.2
2023-05-12T14:58:04.154Z,13
2023-05-12T15:00:11.681Z,13.3
2023-05-12T15:02:04.423Z,13.5
2023-05-12T15:04:04.100Z,13.4
2023-05-12T15:06:06.728Z,13.2
2023-05-12T15:08:04.113Z,13.3
2023-05-12T15:10:04.293Z,13.4
2023-05-12T15:12:04.118Z,13.7
2023-05-12T15:14:04.145Z,13.5
2023-05-12T15:16:04.243Z,13.3
2023-05-12T15:18:09.832Z,13.5
2023-05-12T15:20:04.271Z,13.5
2023-05-12T15:22:04.220Z,13.3
2023-05-12T15:24:04.216Z,13.3
2023-05-12T15:26:15.371Z,13.5
2023-05-12T15:28:03.929Z,13.4
2023-05-12T15:30:05.139Z,13
2023-05-12T15:32:08.380Z,12.6
2023-05-12T15:34:05.510Z,12.4
2023-05-12T15:36:04.183Z,12
2023-05-12T15:38:05.113Z,11.8
2023-05-12T15:40:05.475Z,11.9
2023-05-12T15:42:10.602Z,11.9
2023-05-12T15:44:03.955Z,11.7
2023-05-12T15:46:05.504Z,11.6
2023-05-12T15:48:10.793Z,11.7
2023-05-12T15:50:06.264Z,11.7
2023-05-12T15:52:04.005Z,11.6
2023-05-12T15:54:09.991Z,11.8
2023-05-12T15:56:03.714Z,11.6
2023-05-12T15:58:09.060Z,11.6
2023-05-12T16:00:04.850Z,11.6
2023-05-12T16:02:05.453Z,11.7
2023-05-12T16:04:05.336Z,11.8
2023-05-12T16:06:04.014Z,11.9
2023-05-12T16:08:04.102Z,11.9
2023-05-12T16:10:05.463Z,11.8
2023-05-12T16:12:09.364Z,11.8
2023-05-12T16:14:04.363Z,11.8
2023-05-12T16:16:04.453Z,11.7
2023-05-12T16:18:11.450Z,11.6
2023-05-12T16:20:04.439Z,11.4
2023-05-12T16:22:05.795Z,11.4
2023-05-12T16:24:04.353Z,11.6
2023-05-12T16:26:04.554Z,11.7
2023-05-12T16:28:04.891Z,11.5
2023-05-12T16:30:05.435Z,11.4
2023-05-12T16:32:04.596Z,11.4
2023-05-12T16:34:06.037Z,11.4
2023-05-12T16:36:03.608Z,11.6
2023-05-12T16:38:09.591Z,11.6
2023-05-12T16:40:04.768Z,11.4
2023-05-12T16:42:09.113Z,11.3
2023-05-12T16:44:05.384Z,11.4
2023-05-12T16:46:11.915Z,11.3
2023-05-12T16:48:09.033Z,11.3
2023-05-12T16:50:04.452Z,11.3
2023-05-12T16:52:06.341Z,11.3
2023-05-12T16:54:09.667Z,11.4
2023-05-12T16:56:12.257Z,11.4
2023-05-12T16:58:10.036Z,11.3
2023-05-12T17:00:08.260Z,11.4
2023-05-12T17:02:07.131Z,11.5
2023-05-12T17:04:04.617Z,11.1
2023-05-12T17:06:05.875Z,11.1
2023-05-12T17:08:05.410Z,11.2
2023-05-12T17:10:07.287Z,11.2
2023-05-12T17:12:06.349Z,11.2
2023-05-12T17:14:10.844Z,11.3
2023-05-12T17:16:04.586Z,11.3
2023-05-12T17:18:11.672Z,11.3
2023-05-12T17:20:05.393Z,11.2
2023-05-12T17:22:05.450Z,11.2
2023-05-12T17:24:12.688Z,11.2
2023-05-12T17:26:08.799Z,11.1
2023-05-12T17:28:04.361Z,10.9
2023-05-12T17:30:09.059Z,11.1
2023-05-12T17:32:04.054Z,10.9
2023-05-12T17:34:06.242Z,10.9
2023-05-12T17:36:12.145Z,10.9
2023-05-12T17:38:05.091Z,10.9
2023-05-12T17:40:06.728Z,10.9
2023-05-12T17:42:06.299Z,10.9
2023-05-12T17:44:04.511Z,10.9
2023-05-12T17:46:11.869Z,10.8
2023-05-12T17:48:06.887Z,10.7
2023-05-12T17:50:03.561Z,10.8
2023-05-12T17:52:12.915Z,10.7
2023-05-12T17:54:03.496Z,10.8
2023-05-12T17:56:04.376Z,10.7
2023-05-12T17:58:08.850Z,10.7
2023-05-12T18:00:08.078Z,10.7
2023-05-12T18:02:03.521Z,10.7
2023-05-12T18:04:03.502Z,10.6
2023-05-12T18:06:03.548Z,10.7
2023-05-12T18:08:03.526Z,10.6
2023-05-12T18:10:03.625Z,10.6
2023-05-12T18:12:03.512Z,10.6
2023-05-12T18:14:13.305Z,10.7
2023-05-12T18:16:03.515Z,10.7
2023-05-12T18:18:03.569Z,10.6
2023-05-12T18:20:03.502Z,10.6
2023-05-12T18:24:03.487Z,10.5
2023-05-12T18:26:03.503Z,10.5
2023-05-12T18:28:04.728Z,10.5
2023-05-12T18:30:03.521Z,10.5
2023-05-12T18:32:03.988Z,10.4
2023-05-12T18:34:03.532Z,10.5
2023-05-12T18:36:03.525Z,10.4
2023-05-12T18:38:04.217Z,10.5
2023-05-12T18:40:03.534Z,10.5
2023-05-12T18:42:06.087Z,10.5
2023-05-12T18:44:09.046Z,10.5
2023-05-12T18:46:06.211Z,10.5
2023-05-12T18:48:03.518Z,10.4
2023-05-12T18:50:03.557Z,10.4
2023-05-12T18:52:03.537Z,10.4
2023-05-12T18:54:04.895Z,10.3
2023-05-12T18:56:03.513Z,10.3
2023-05-12T18:58:03.492Z,10.3
2023-05-12T19:00:03.543Z,10.3
2023-05-12T19:02:03.585Z,10.3
2023-05-12T19:04:03.528Z,10.2
2023-05-12T19:06:03.528Z,10.2
2023-05-12T19:08:05.357Z,10.2
2023-05-12T19:10:03.672Z,10.2
2023-05-12T19:12:03.578Z,10.2
2023-05-12T19:14:03.575Z,10.2
2023-05-12T19:16:03.552Z,10.1
2023-05-12T19:18:04.953Z,10.1
2023-05-12T19:20:04.427Z,10.1
2023-05-12T19:22:03.546Z,10.1
2023-05-12T19:24:07.896Z,10
2023-05-12T19:26:03.882Z,10.1
2023-05-12T19:28:03.525Z,10.2
2023-05-12T19:30:03.874Z,10.1
2023-05-12T19:32:03.571Z,10.1
2023-05-12T19:34:04.413Z,10.1
2023-05-12T19:36:04.299Z,10.1
2023-05-12T19:38:04.763Z,10
2023-05-12T19:40:03.592Z,10
2023-05-12T19:42:05.803Z,10
2023-05-12T19:44:03.562Z,10
2023-05-12T19:46:03.526Z,10
2023-05-12T19:50:03.517Z,10
2023-05-12T19:52:03.986Z,10.1
2023-05-12T19:54:04.425Z,10.1
2023-05-12T19:56:03.548Z,10.1
2023-05-12T19:58:03.586Z,10
2023-05-12T20:00:03.559Z,10
2023-05-12T20:02:04.766Z,10
2023-05-12T20:04:03.561Z,10
2023-05-12T20:10:05.506Z,10
2023-05-12T20:12:03.555Z,10
2023-05-12T20:14:04.982Z,10
2023-05-12T20:18:03.600Z,9.9
2023-05-12T20:20:04.432Z,10
2023-05-12T20:22:03.570Z,9.9
2023-05-12T20:24:06.051Z,9.9
2023-05-12T20:26:03.552Z,9.9
2023-05-12T20:28:05.122Z,9.9
2023-05-12T20:30:03.571Z,9.9
2023-05-12T20:32:03.556Z,9.9
2023-05-12T20:34:03.528Z,9.9
2023-05-12T20:36:03.526Z,10
2023-05-12T20:38:04.370Z,10
2023-05-12T20:40:03.535Z,10
2023-05-12T20:44:03.575Z,10
2023-05-12T20:46:03.589Z,10
2023-05-12T20:48:03.540Z,10
2023-05-12T20:50:03.536Z,10
2023-05-12T20:52:03.548Z,10
2023-05-12T20:54:07.869Z,10
2023-05-12T20:56:03.924Z,10
2023-05-12T20:58:03.951Z,10
2023-05-12T21:00:03.520Z,10
2023-05-12T21:02:03.997Z,10
2023-05-12T21:04:03.591Z,10.1
2023-05-12T21:06:03.544Z,10
2023-05-12T21:08:03.558Z,10.1
2023-05-12T21:10:03.639Z,10
2023-05-12T21:12:03.567Z,10
2023-05-12T21:14:03.525Z,10
2023-05-12T21:16:08.108Z,10
2023-05-12T21:18:03.616Z,10
2023-05-12T21:20:03.567Z,10
2023-05-12T21:22:04.012Z,10
2023-05-12T21:24:03.523Z,10
2023-05-12T21:26:03.554Z,10
2023-05-12T21:28:03.548Z,10
2023-05-12T21:30:03.560Z,10
2023-05-12T21:32:04.388Z,10
2023-05-12T21:34:03.596Z,10
2023-05-12T21:36:03.548Z,10
2023-05-12T21:38:04.786Z,10
2023-05-12T21:40:03.553Z,10
2023-05-12T21:44:03.553Z,10
2023-05-12T21:46:03.593Z,10
2023-05-12T21:48:04.032Z,10
2023-05-12T21:50:04.419Z,10
2023-05-12T21:52:03.981Z,9.9
2023-05-12T21:54:03.567Z,9.9
2023-05-12T21:56:03.561Z,9.9
2023-05-12T21:58:04.508Z,9.9
2023-05-12T22:02:03.629Z,9.8
2023-05-12T22:04:03.557Z,9.8
2023-05-12T22:06:03.760Z,9.8
2023-05-12T22:10:03.597Z,9.8
2023-05-12T22:14:03.568Z,9.8
2023-05-12T22:16:03.593Z,9.7
2023-05-12T22:18:03.678Z,9.7
2023-05-12T22:20:03.569Z,9.7
2023-05-12T22:22:03.567Z,9.8
2023-05-12T22:24:03.592Z,9.7
2023-05-12T22:26:04.024Z,9.7
2023-05-12T22:28:04.842Z,9.7
2023-05-12T22:30:03.693Z,9.8
2023-05-12T22:32:03.573Z,9.7
2023-05-12T22:34:03.556Z,9.7
2023-05-12T22:36:04.023Z,9.7
2023-05-12T22:38:03.561Z,9.7
2023-05-12T22:40:06.284Z,9.6
2023-05-12T22:42:03.557Z,9.6
2023-05-12T22:44:03.534Z,9.7
2023-05-12T22:46:03.588Z,9.6
2023-05-12T22:48:03.593Z,9.6
2023-05-12T22:50:03.581Z,9.6
2023-05-12T22:54:04.091Z,9.6
2023-05-12T22:56:03.570Z,9.5
2023-05-12T22:58:04.014Z,9.6
2023-05-12T23:00:04.053Z,9.5
2023-05-12T23:02:03.601Z,9.6
2023-05-12T23:04:03.613Z,9.6
2023-05-12T23:06:04.010Z,9.5
2023-05-12T23:08:03.570Z,9.5
2023-05-12T23:10:03.718Z,9.5
2023-05-12T23:12:03.573Z,9.5
2023-05-12T23:16:04.006Z,9.5
2023-05-12T23:18:04.010Z,9.5
2023-05-12T23:20:03.595Z,9.4
2023-05-12T23:24:03.988Z,9.4
2023-05-12T23:26:03.580Z,9.4
2023-05-12T23:28:04.280Z,9.4
2023-05-12T23:30:04.080Z,9.4
2023-05-12T23:32:03.694Z,9.3
2023-05-12T23:34:06.566Z,9.3
2023-05-12T23:36:03.906Z,9.3
2023-05-12T23:38:03.562Z,9.3
2023-05-12T23:40:03.622Z,9.2
2023-05-12T23:42:03.573Z,9.2
2023-05-12T23:44:03.551Z,9.3
2023-05-12T23:46:03.650Z,9.3
2023-05-12T23:48:04.081Z,9.2
2023-05-12T23:50:03.695Z,9.3
2023-05-12T23:52:03.564Z,9.2
2023-05-12T23:54:03.674Z,9.1
2023-05-12T23:56:04.056Z,9.2
2023-05-12T23:58:04.004Z,9.1
